MMDO/DGO METAR and TAF weather

Enter ICAO airport designator
Station Type Date Time Source
MMDO METAR 2021/05/13 01:46 UTC NOAA

MMDO 130146Z 24009KT 6SM BKN020CB OVC070 25/04 A3021 RMK 8/36/


Station Type Date Time Source
MMDO Decoded METAR 2021/05/13 01:46 UTC NOAA

Durango Airport, Mexico (MMDO) 24-08N 104-32W
May 12, 2021 - 09:46 PM EDT / 2021.05.13 0146 UTC
Wind: from the WSW (240 degrees) at 10 MPH (9 KT):0
Visibility: 6 mile(s):0
Sky conditions: overcast
Weather: Cumulonimbus clouds observed
Temperature: 77 F (25 C)
Dew Point: 39 F (4 C)
Relative Humidity: 25%
Pressure (altimeter): 30.21 in. Hg (1023 hPa)
ob: MMDO 130146Z 24009KT 6SM BKN020CB OVC070 25/04 A3021 RMK 8/36/
cycle: 2

Station Type Date Time Source
MMDO TAF 2021/05/13 06:54 UTC NOAA

TAF MMDO 130451Z 1306/1406 24005KT 6SM HZ SCT020 BKN070
FM131800 13010KT P6SM SCT030 SCT100
TEMPO 1323/1403 6SM -RA BKN020CB

Example: see airport list